Anawalt, West Virginia
Current Conditions -  °F | °C
As of 2:52 AM on Sunday 26 Oct 2014 (Local Time) from KBLF Reporting Station
Overcast Overcast  
Wind Chill: 58°   Ceiling: 900
Heat Index: 58°   Visibility: 10mi
Dew Point: 52°   Wind: 9mph
Humidity: 81%   Direction: 300°WNW
Pressure: 29.93"   Gusts: 21mph
Location:  37.34°N, 81.44°W
Report Text: KBLF 260652Z AUTO 30008G18KT 10SM OVC009 14/11 A2993 RMK AO2 CIG 007V012 SLP113 T01440111
Loading
Personal Weather Stations






























Interactive Weather Map
Tropical Storm Tracking
New forecast layout! Learn more

10-Day Weather Forecast

Advertisements
Track Severe Weather on mobile